Time;durP1;ratioP1;P1;durP2;ratioP2;P2;SDS_P1;SDS_P2;PMS_P1;PMS_P2;Temp;Humidity;BMP_temperature;BMP_pressure;BME280_temperature;BME280_humidity;BME280_pressure;Samples;Min_cycle;Max_cycle;Signal;HPM_P1;HPM_P2
2022/11/08 00:01:51;;;;;;;2.78;1.50;;;9.90;99.90;;;;;;5077721;28;20601;-73
2022/11/08 00:04:18;;;;;;;2.63;1.65;;;9.80;99.90;;;;;;5095354;28;20503;-72
2022/11/08 00:14:58;;;;;;;4.15;2.20;;;10.50;99.90;;;;;;5076085;28;20079;-71
2022/11/08 00:17:25;;;;;;;3.75;1.85;;;10.30;99.90;;;;;;5075080;28;20494;-70
2022/11/08 00:19:52;;;;;;;5.15;2.33;;;10.10;99.90;;;;;;5074385;28;20111;-71
2022/11/08 00:22:18;;;;;;;6.93;2.97;;;9.90;99.90;;;;;;5074309;28;20044;-73
2022/11/08 00:24:45;;;;;;;5.15;2.70;;;9.90;99.90;;;;;;5074890;28;20032;-70
2022/11/08 00:27:21;;;;;;;3.83;2.33;;;9.60;99.90;;;;;;5073968;28;20174;-71
2022/11/08 00:29:47;;;;;;;7.50;4.07;;;9.50;99.90;;;;;;5081995;28;20048;-72
2022/11/08 00:32:18;;;;;;;6.35;3.38;;;9.60;99.90;;;;;;5091557;28;20032;-70
2022/11/08 00:34:44;;;;;;;3.63;1.85;;;9.80;99.90;;;;;;5092392;28;20117;-71
2022/11/08 00:37:10;;;;;;;4.28;1.63;;;9.90;99.90;;;;;;5074496;28;20043;-73
2022/11/08 00:39:36;;;;;;;4.32;1.77;;;10.10;99.90;;;;;;5082375;28;20397;-71
2022/11/08 00:42:02;;;;;;;5.63;2.10;;;10.20;99.90;;;;;;5092539;28;20093;-71
2022/11/08 00:44:28;;;;;;;5.05;2.03;;;9.90;99.90;;;;;;5092544;28;20042;-71
2022/11/08 00:46:54;;;;;;;5.55;2.15;;;9.40;99.90;;;;;;5075733;28;20435;-71
2022/11/08 00:49:20;;;;;;;3.80;2.08;;;9.30;99.90;;;;;;5079178;28;20040;-72
2022/11/08 00:51:46;;;;;;;3.95;1.98;;;9.30;99.90;;;;;;5088860;28;20040;-72
2022/11/08 00:54:14;;;;;;;2.33;1.55;;;9.50;99.90;;;;;;5093299;28;20040;-71
2022/11/08 00:56:40;;;;;;;6.15;1.92;;;9.50;99.90;;;;;;5079101;28;20048;-71
2022/11/08 00:59:06;;;;;;;3.10;1.58;;;9.20;99.90;;;;;;5076212;28;20032;-71
2022/11/08 01:01:32;;;;;;;3.80;1.58;;;9.30;99.90;;;;;;5094079;28;20526;-71
2022/11/08 01:03:57;;;;;;;2.95;1.50;;;9.70;99.90;;;;;;5095356;28;20028;-72
2022/11/08 01:06:24;;;;;;;3.70;1.42;;;10.00;99.90;;;;;;5094892;28;20036;-71
2022/11/08 01:08:50;;;;;;;5.55;1.55;;;10.10;99.90;;;;;;5094798;28;20123;-70
2022/11/08 01:11:22;;;;;;;3.78;1.55;;;10.10;99.90;;;;;;5073926;28;20553;-70
2022/11/08 01:13:48;;;;;;;3.72;1.60;;;10.20;99.90;;;;;;5074983;28;20357;-71
2022/11/08 01:16:20;;;;;;;3.20;1.60;;;10.20;99.90;;;;;;5076023;28;20076;-71
2022/11/08 01:18:47;;;;;;;4.60;2.63;;;10.10;99.90;;;;;;5074180;28;20154;-70
2022/11/08 01:21:13;;;;;;;3.65;2.10;;;10.00;99.90;;;;;;5093761;28;20403;-71
2022/11/08 01:23:41;;;;;;;3.58;2.20;;;9.80;99.90;;;;;;5094827;28;20499;-71
2022/11/08 01:26:11;;;;;;;5.47;1.77;;;9.70;99.90;;;;;;5094508;28;20064;-73
2022/11/08 01:28:37;;;;;;;4.95;2.38;;;9.70;99.90;;;;;;5095213;28;20586;-72
2022/11/08 01:31:08;;;;;;;3.60;1.75;;;9.90;99.90;;;;;;5076301;28;20045;-71
2022/11/08 01:33:35;;;;;;;4.65;1.60;;;10.00;99.90;;;;;;5074646;28;20040;-70
2022/11/08 01:36:01;;;;;;;4.57;1.95;;;10.10;99.90;;;;;;5086750;28;20051;-73
2022/11/08 01:38:26;;;;;;;3.97;1.70;;;10.10;99.90;;;;;;5093420;28;20028;-72
2022/11/08 01:40:52;;;;;;;4.00;1.50;;;10.20;99.90;;;;;;5079715;28;20044;-71
2022/11/08 01:43:33;;;;;;;5.03;1.98;;;10.10;99.90;;;;;;5074392;28;20522;-72
2022/11/08 01:46:21;;;;;;;;;;;10.10;99.90;;;;;;5080951;28;20032;-72
2022/11/08 01:48:53;;;;;;;3.80;2.13;;;10.20;99.90;;;;;;5072815;28;19912;-71
2022/11/08 01:51:24;;;;;;;6.13;2.70;;;10.20;99.90;;;;;;5092267;28;20043;-71
2022/11/08 01:53:50;;;;;;;4.60;2.40;;;10.10;99.90;;;;;;5094749;28;20057;-73
2022/11/08 01:56:17;;;;;;;5.93;2.40;;;10.00;99.90;;;;;;5093709;28;20480;-72
2022/11/08 01:58:45;;;;;;;2.60;1.50;;;10.00;99.90;;;;;;5094610;28;20039;-71
2022/11/08 02:01:11;;;;;;;2.25;1.42;;;10.20;99.90;;;;;;5078703;28;20143;-71
2022/11/08 02:03:39;;;;;;;3.05;1.27;;;10.00;99.90;;;;;;5074373;28;20037;-72
2022/11/08 02:06:05;;;;;;;1.65;0.88;;;10.30;99.90;;;;;;5073305;28;20032;-71
2022/11/08 02:08:36;;;;;;;1.92;1.15;;;10.50;99.90;;;;;;5073024;28;20063;-73
2022/11/08 02:11:02;;;;;;;4.18;1.50;;;10.50;99.90;;;;;;5088322;28;20079;-70
2022/11/08 02:13:30;;;;;;;2.70;1.10;;;10.40;99.90;;;;;;5093883;28;20040;-72
2022/11/08 02:15:57;;;;;;;2.78;1.17;;;10.30;99.90;;;;;;5093715;28;20051;-72
2022/11/08 02:18:26;;;;;;;2.75;1.25;;;10.40;99.90;;;;;;5092991;28;20042;-71
2022/11/08 02:21:10;;;;;;;3.45;0.98;;;10.40;99.90;;;;;;5080885;28;20047;-73
2022/11/08 02:24:00;;;;;;;1.70;0.68;;;10.30;99.90;;;;;;5077729;28;20032;-71
2022/11/08 02:26:32;;;;;;;1.80;0.90;;;10.70;99.90;;;;;;5093840;28;20077;-71
2022/11/08 02:28:58;;;;;;;2.63;0.98;;;10.80;99.90;;;;;;5092558;28;20039;-72
2022/11/08 02:31:24;;;;;;;1.88;0.80;;;10.90;99.90;;;;;;5093698;28;20040;-71
2022/11/08 02:33:50;;;;;;;2.42;0.98;;;11.00;99.90;;;;;;5088962;28;20028;-73
2022/11/08 02:36:21;;;;;;;1.63;0.88;;;11.10;99.90;;;;;;5072218;28;20090;-72
2022/11/08 02:38:51;;;;;;;2.75;0.88;;;11.20;99.90;;;;;;5073842;28;20021;-71
2022/11/08 02:41:17;;;;;;;1.67;0.98;;;11.10;99.90;;;;;;5106150;28;20517;-72
2022/11/08 02:43:43;;;;;;;2.28;1.35;;;10.90;99.90;;;;;;5075750;28;20043;-71
2022/11/08 02:46:09;;;;;;;3.53;1.25;;;10.70;99.90;;;;;;5091654;28;20118;-71
2022/11/08 02:48:35;;;;;;;3.67;1.50;;;10.50;99.90;;;;;;5093556;28;20043;-71
2022/11/08 02:51:00;;;;;;;3.67;1.50;;;10.50;99.90;;;;;;5092082;28;20040;-70
2022/11/08 02:53:26;;;;;;;1.58;1.23;;;10.30;99.90;;;;;;5091098;28;20127;-71
2022/11/08 02:55:52;;;;;;;2.95;1.50;;;10.30;99.90;;;;;;5077716;28;20141;-73
2022/11/08 02:58:18;;;;;;;2.15;1.38;;;10.30;99.90;;;;;;5077915;28;20072;-71
2022/11/08 03:00:43;;;;;;;2.25;1.38;;;10.20;99.90;;;;;;5109717;28;20610;-72
2022/11/08 03:03:09;;;;;;;2.45;1.38;;;10.00;99.90;;;;;;5077593;28;20559;-73
2022/11/08 03:05:35;;;;;;;3.38;1.60;;;10.00;99.90;;;;;;5093400;28;20067;-71
2022/11/08 03:08:01;;;;;;;4.13;1.38;;;10.00;99.90;;;;;;5092796;28;20041;-73
2022/11/08 03:10:28;;;;;;;3.47;2.05;;;10.00;99.90;;;;;;5082977;28;20086;-72
2022/11/08 03:13:01;;;;;;;1.75;1.35;;;10.10;99.90;;;;;;5109278;28;20503;-71
2022/11/08 03:15:28;;;;;;;4.55;1.55;;;10.20;99.90;;;;;;5090801;28;20055;-71
2022/11/08 03:17:57;;;;;;;1.80;1.05;;;10.20;99.90;;;;;;5088952;28;20396;-70
2022/11/08 03:20:23;;;;;;;3.95;1.70;;;10.40;99.90;;;;;;5077053;28;20076;-71
2022/11/08 03:22:57;;;;;;;2.83;1.27;;;10.40;99.90;;;;;;5109852;28;20443;-71
2022/11/08 03:25:23;;;;;;;2.55;1.15;;;10.50;99.90;;;;;;5077004;28;20033;-73
2022/11/08 03:27:48;;;;;;;3.65;0.90;;;10.60;99.90;;;;;;5077116;28;20114;-72
2022/11/08 03:30:14;;;;;;;1.60;0.80;;;10.90;99.90;;;;;;5082007;28;20028;-71
2022/11/08 03:32:40;;;;;;;3.47;0.88;;;11.30;99.90;;;;;;5077875;28;20036;-72
2022/11/08 03:35:06;;;;;;;2.45;0.70;;;11.50;99.90;;;;;;5083418;28;20035;-72
2022/11/08 03:37:32;;;;;;;2.42;0.80;;;11.70;99.90;;;;;;5096913;28;20411;-71
2022/11/08 03:39:58;;;;;;;2.13;0.80;;;11.50;99.90;;;;;;5093154;28;20034;-72
2022/11/08 03:42:23;;;;;;;1.15;0.70;;;11.50;99.90;;;;;;5076910;28;20025;-71
2022/11/08 03:44:49;;;;;;;2.63;0.88;;;11.50;99.90;;;;;;5076877;28;20033;-71
2022/11/08 03:47:15;;;;;;;1.33;0.90;;;11.70;99.90;;;;;;5077942;28;20067;-72
2022/11/08 03:49:41;;;;;;;1.90;0.60;;;11.70;99.90;;;;;;5071174;28;20079;-71
2022/11/08 03:52:07;;;;;;;2.88;1.02;;;11.60;99.90;;;;;;5095119;28;20039;-71
2022/11/08 03:54:32;;;;;;;1.50;0.70;;;11.80;99.90;;;;;;5095252;28;20055;-71
2022/11/08 03:56:58;;;;;;;1.92;0.82;;;11.90;99.90;;;;;;5095296;28;20434;-73
2022/11/08 03:59:24;;;;;;;3.42;0.60;;;11.90;99.90;;;;;;5096193;28;20120;-72
2022/11/08 04:01:49;;;;;;;1.30;0.50;;;11.80;99.90;;;;;;5078857;28;20037;-71
2022/11/08 04:04:15;;;;;;;2.20;0.68;;;11.70;99.90;;;;;;5080030;28;20032;-71
2022/11/08 04:06:41;;;;;;;1.23;0.60;;;11.80;99.90;;;;;;5096696;28;20093;-71
2022/11/08 04:09:06;;;;;;;1.65;0.60;;;12.00;99.90;;;;;;5095954;28;20527;-72
2022/11/08 04:17:00;;;;;;;0.60;0.52;;;12.10;99.90;;;;;;5076448;28;20047;-71
2022/11/08 04:22:10;;;;;;;1.42;0.63;;;12.10;99.90;;;;;;5077374;28;20090;-73
2022/11/08 04:24:36;;;;;;;1.67;0.93;;;12.10;99.90;;;;;;5076046;28;20043;-72
2022/11/08 04:27:02;;;;;;;0.95;0.65;;;12.10;99.90;;;;;;5077086;28;20037;-71
2022/11/08 04:29:28;;;;;;;1.58;0.60;;;12.20;99.90;;;;;;5108388;28;20391;-72
2022/11/08 04:31:54;;;;;;;2.33;0.75;;;12.40;99.90;;;;;;5074739;28;20051;-70
2022/11/08 04:34:20;;;;;;;1.75;0.77;;;12.40;99.90;;;;;;5079629;28;20037;-71
2022/11/08 04:36:46;;;;;;;1.00;0.70;;;12.40;99.90;;;;;;5076121;28;20040;-71
2022/11/08 04:39:11;;;;;;;1.55;0.50;;;12.40;99.90;;;;;;5075858;28;20029;-71
2022/11/08 04:41:37;;;;;;;3.00;0.85;;;12.30;99.90;;;;;;5089688;28;20474;-71
2022/11/08 04:44:03;;;;;;;2.95;1.20;;;12.40;99.90;;;;;;5090212;28;20037;-70
2022/11/08 04:46:29;;;;;;;1.60;0.80;;;12.50;99.90;;;;;;5080717;28;20572;-72
2022/11/08 04:48:57;;;;;;;1.67;1.00;;;12.40;99.90;;;;;;5085684;28;20527;-71
2022/11/08 04:51:26;;;;;;;2.03;1.35;;;12.30;99.90;;;;;;5089269;28;20044;-71
2022/11/08 04:53:53;;;;;;;2.22;0.93;;;12.20;99.90;;;;;;5094792;28;20082;-71
2022/11/08 04:56:20;;;;;;;1.02;0.60;;;12.20;99.90;;;;;;5074989;28;20091;-71
2022/11/08 04:58:48;;;;;;;1.35;0.90;;;12.30;99.90;;;;;;5092016;28;20028;-72
2022/11/08 05:01:19;;;;;;;2.35;1.15;;;12.20;99.90;;;;;;5095609;28;20449;-71
2022/11/08 05:03:46;;;;;;;1.52;0.70;;;12.30;99.90;;;;;;5093761;28;20032;-71
2022/11/08 05:06:15;;;;;;;1.40;0.80;;;12.30;99.90;;;;;;5078632;28;20076;-73
2022/11/08 05:08:41;;;;;;;4.05;1.10;;;12.50;99.90;;;;;;5074448;28;20574;-73
2022/11/08 05:11:10;;;;;;;1.10;0.77;;;12.50;99.90;;;;;;5075321;28;20036;-72
2022/11/08 05:13:36;;;;;;;1.48;0.90;;;12.50;99.90;;;;;;5075254;28;20032;-71
2022/11/08 05:16:05;;;;;;;1.67;1.02;;;12.50;99.90;;;;;;5077294;28;20151;-71
2022/11/08 05:18:31;;;;;;;1.20;0.75;;;12.50;99.90;;;;;;5088993;28;20040;-72
2022/11/08 05:23:43;;;;;;;1.52;0.73;;;12.60;99.90;;;;;;5074821;28;20420;-71
2022/11/08 05:26:09;;;;;;;1.33;0.80;;;12.60;99.90;;;;;;5107187;28;20395;-70
2022/11/08 05:28:35;;;;;;;1.80;0.73;;;12.70;99.90;;;;;;5074632;28;20050;-71
2022/11/08 05:31:03;;;;;;;1.42;0.90;;;12.70;99.90;;;;;;5080110;28;20028;-71
2022/11/08 05:33:28;;;;;;;1.30;0.80;;;12.70;99.90;;;;;;5081635;28;20043;-72
2022/11/08 05:35:54;;;;;;;1.65;0.80;;;12.90;99.90;;;;;;5086258;28;20056;-72
2022/11/08 05:38:20;;;;;;;0.85;0.70;;;12.90;99.90;;;;;;5073442;28;20028;-71
2022/11/08 05:40:46;;;;;;;1.23;0.82;;;12.90;99.90;;;;;;5075651;28;20032;-72
2022/11/08 05:43:12;;;;;;;1.42;0.93;;;12.90;99.90;;;;;;5073238;28;20583;-73
2022/11/08 05:45:38;;;;;;;1.58;0.82;;;12.90;99.90;;;;;;5079674;28;20124;-72
2022/11/08 05:48:04;;;;;;;1.48;0.80;;;13.00;99.90;;;;;;5074513;28;20120;-72
2022/11/08 05:50:32;;;;;;;2.08;1.13;;;13.00;99.90;;;;;;5084170;28;20039;-72
2022/11/08 05:52:58;;;;;;;1.63;0.90;;;12.80;99.90;;;;;;5094734;28;20044;-72
2022/11/08 05:55:24;;;;;;;2.95;1.20;;;12.70;99.90;;;;;;5094555;28;20044;-73
2022/11/08 05:57:50;;;;;;;1.58;0.90;;;12.70;99.90;;;;;;5093663;28;20089;-71
2022/11/08 06:00:16;;;;;;;2.45;0.95;;;12.70;99.90;;;;;;5094397;28;20043;-71
2022/11/08 06:02:42;;;;;;;2.05;0.90;;;12.80;99.90;;;;;;5093160;28;20492;-72
2022/11/08 06:05:08;;;;;;;1.73;0.95;;;12.80;99.90;;;;;;5094722;28;20035;-72
2022/11/08 06:07:35;;;;;;;2.70;1.20;;;12.80;99.90;;;;;;5093333;28;20036;-71
2022/11/08 06:10:01;;;;;;;1.70;1.02;;;12.70;99.90;;;;;;5094708;28;20051;-71
2022/11/08 06:12:27;;;;;;;3.45;1.63;;;12.70;99.90;;;;;;5094256;28;20047;-72
2022/11/08 06:14:53;;;;;;;3.08;1.67;;;12.70;99.90;;;;;;5094426;28;20059;-72
2022/11/08 06:17:18;;;;;;;2.28;1.30;;;12.80;99.90;;;;;;5093098;28;20028;-71
2022/11/08 06:19:44;;;;;;;2.45;0.88;;;12.80;99.90;;;;;;5093130;28;20043;-72
2022/11/08 06:22:10;;;;;;;1.85;1.08;;;12.70;99.90;;;;;;5094454;28;20124;-71
2022/11/08 06:24:36;;;;;;;2.08;1.23;;;12.70;99.90;;;;;;5094189;28;20434;-72
2022/11/08 06:27:02;;;;;;;2.70;1.33;;;12.70;99.90;;;;;;5094255;28;20081;-72
2022/11/08 06:29:27;;;;;;;2.50;1.45;;;12.60;99.90;;;;;;5093144;28;20237;-71
2022/11/08 06:31:53;;;;;;;1.67;1.10;;;12.60;99.90;;;;;;5076457;28;20047;-71
2022/11/08 06:34:19;;;;;;;1.65;0.80;;;12.50;99.90;;;;;;5073049;28;20036;-71
2022/11/08 06:36:45;;;;;;;1.95;0.90;;;12.40;99.90;;;;;;5071692;28;20119;-71
2022/11/08 06:39:11;;;;;;;1.40;0.70;;;12.30;99.90;;;;;;5073412;28;20044;-71
2022/11/08 06:41:36;;;;;;;1.50;0.85;;;12.30;99.90;;;;;;5072630;28;20041;-72
2022/11/08 06:44:03;;;;;;;1.90;0.90;;;12.20;99.90;;;;;;5073755;28;20029;-71
2022/11/08 06:46:29;;;;;;;1.67;0.90;;;12.20;99.90;;;;;;5072347;28;20075;-72
2022/11/08 06:48:54;;;;;;;1.92;1.17;;;12.10;99.90;;;;;;5073810;28;20480;-72
2022/11/08 06:51:20;;;;;;;20.10;10.48;;;12.10;99.90;;;;;;5072307;28;20032;-72
2022/11/08 06:53:47;;;;;;;24.88;15.20;;;12.10;99.90;;;;;;5073796;28;20125;-71
2022/11/08 06:56:12;;;;;;;16.65;11.73;;;12.10;99.90;;;;;;5072133;28;20052;-71
2022/11/08 06:58:39;;;;;;;15.23;8.88;;;12.10;99.90;;;;;;5071728;28;20526;-71
2022/11/08 07:01:06;;;;;;;5.00;2.30;;;12.10;99.90;;;;;;5071664;28;20039;-70
2022/11/08 07:03:33;;;;;;;13.60;7.72;;;12.00;99.90;;;;;;5071832;28;20036;-70
2022/11/08 07:06:03;;;;;;;6.28;3.40;;;12.10;99.90;;;;;;5072239;28;20557;-69
2022/11/08 07:08:31;;;;;;;2.75;1.40;;;12.10;99.90;;;;;;5070556;28;20123;-72
2022/11/08 07:10:56;;;;;;;1.10;0.95;;;12.00;99.90;;;;;;5072691;28;20049;-69
2022/11/08 07:13:22;;;;;;;4.03;1.50;;;12.00;99.90;;;;;;5072070;28;20377;-71
2022/11/08 07:15:48;;;;;;;3.08;1.02;;;11.60;99.90;;;;;;5072053;28;20059;-69
2022/11/08 07:18:15;;;;;;;3.17;1.20;;;11.60;99.90;;;;;;5073008;28;20128;-72
2022/11/08 07:20:42;;;;;;;1.00;0.80;;;11.60;99.90;;;;;;5071279;28;20064;-69
2022/11/08 07:23:09;;;;;;;1.38;0.90;;;11.80;99.90;;;;;;5073404;28;20484;-69
2022/11/08 07:25:35;;;;;;;3.72;2.13;;;12.00;99.90;;;;;;5073235;28;20033;-70
2022/11/08 07:28:03;;;;;;;1.98;1.02;;;12.50;99.90;;;;;;5073404;28;20043;-71
2022/11/08 07:30:30;;;;;;;39.70;16.00;;;13.00;99.90;;;;;;5073635;28;20037;-69
2022/11/08 07:32:56;;;;;;;43.60;17.08;;;13.30;99.90;;;;;;5073032;28;20045;-70
2022/11/08 07:35:24;;;;;;;19.45;9.30;;;13.40;99.90;;;;;;5073224;28;20512;-70
2022/11/08 07:37:49;;;;;;;16.83;7.32;;;13.50;99.90;;;;;;5053680;28;20037;-71
2022/11/08 07:40:15;;;;;;;39.55;16.23;;;13.40;99.90;;;;;;5083571;28;20048;-70
2022/11/08 07:42:41;;;;;;;8.80;3.95;;;13.70;99.90;;;;;;5055475;28;20029;-70
2022/11/08 07:45:09;;;;;;;4.22;1.35;;;13.60;99.90;;;;;;5057310;28;20090;-70
2022/11/08 07:47:35;;;;;;;19.60;9.50;;;13.30;99.90;;;;;;5057139;28;20163;-69
2022/11/08 07:50:00;;;;;;;8.18;3.35;;;13.10;99.90;;;;;;5057138;28;20493;-70
2022/11/08 07:52:27;;;;;;;3.83;1.77;;;13.20;99.90;;;;;;5057037;28;20044;-69
2022/11/08 07:54:52;;;;;;;1.90;1.13;;;13.20;99.90;;;;;;5060551;28;20056;-70
2022/11/08 07:57:19;;;;;;;2.35;1.20;;;13.40;99.90;;;;;;5063661;28;20044;-69
2022/11/08 07:59:45;;;;;;;16.45;6.07;;;13.80;99.90;;;;;;5054194;28;20561;-70
2022/11/08 08:02:11;;;;;;;6.63;5.20;;;14.00;99.90;;;;;;5054567;28;20120;-70
2022/11/08 08:04:38;;;;;;;2.55;1.42;;;14.10;99.90;;;;;;5054817;28;20131;-71
2022/11/08 08:07:04;;;;;;;1.67;1.10;;;13.60;99.90;;;;;;5054499;28;20033;-70
2022/11/08 08:09:31;;;;;;;3.40;1.10;;;13.50;99.90;;;;;;5056555;28;20048;-70
2022/11/08 08:11:56;;;;;;;1.05;0.88;;;13.70;99.90;;;;;;5071796;28;20119;-72
2022/11/08 08:14:22;;;;;;;3.85;1.10;;;13.70;99.90;;;;;;5056394;28;20544;-71
2022/11/08 08:16:48;;;;;;;2.38;1.15;;;13.90;99.90;;;;;;5056490;28;20040;-70
2022/11/08 08:19:14;;;;;;;1.88;1.00;;;13.90;99.90;;;;;;5071957;28;20033;-70
2022/11/08 08:21:39;;;;;;;1.90;1.20;;;13.80;99.90;;;;;;5066439;28;20127;-70
2022/11/08 08:24:05;;;;;;;1.50;0.80;;;14.20;99.90;;;;;;5056171;28;20029;-72
2022/11/08 08:26:31;;;;;;;2.67;1.13;;;14.60;99.90;;;;;;5056334;28;20078;-71
2022/11/08 08:28:57;;;;;;;3.38;2.28;;;14.80;99.90;;;;;;5056023;28;20099;-70
2022/11/08 08:31:22;;;;;;;3.90;1.48;;;15.10;99.90;;;;;;5056020;28;20099;-71
2022/11/08 08:33:48;;;;;;;3.05;1.60;;;15.20;99.90;;;;;;5081887;28;20501;-71
2022/11/08 08:36:14;;;;;;;3.42;1.38;;;15.60;99.90;;;;;;5072885;28;20090;-69
2022/11/08 08:38:40;;;;;;;3.55;1.70;;;15.80;99.90;;;;;;5072561;28;20377;-71
2022/11/08 08:41:05;;;;;;;2.40;1.00;;;16.20;99.90;;;;;;5073017;28;20557;-72
2022/11/08 08:43:31;;;;;;;9.60;1.90;;;15.90;99.90;;;;;;5073156;28;20032;-71
2022/11/08 08:46:03;;;;;;;6.78;2.38;;;15.60;99.90;;;;;;5073958;28;20036;-69
2022/11/08 08:48:29;;;;;;;4.22;1.70;;;15.70;99.90;;;;;;5074041;28;20446;-72
2022/11/08 08:50:54;;;;;;;9.10;3.10;;;16.00;99.90;;;;;;5074113;28;20036;-72
2022/11/08 08:53:20;;;;;;;6.38;3.40;;;16.10;99.90;;;;;;5073346;28;20032;-71
2022/11/08 08:55:46;;;;;;;6.25;1.40;;;15.70;99.90;;;;;;5075853;28;20087;-71
2022/11/08 08:58:13;;;;;;;2.08;0.90;;;15.50;99.90;;;;;;5075970;28;20036;-71
2022/11/08 09:00:42;;;;;;;4.35;1.77;;;15.70;99.90;;;;;;5074305;28;20035;-73
2022/11/08 09:03:09;;;;;;;6.43;2.55;;;15.80;99.90;;;;;;5075709;28;20037;-73
2022/11/08 09:05:36;;;;;;;12.15;3.47;;;15.80;99.90;;;;;;5075932;28;20036;-74
2022/11/08 09:08:02;;;;;;;2.92;1.25;;;15.90;99.90;;;;;;5075453;28;20443;-72
2022/11/08 09:10:28;;;;;;;2.65;1.00;;;15.80;99.90;;;;;;5075547;28;20116;-71
2022/11/08 09:12:56;;;;;;;5.32;1.77;;;15.90;99.90;;;;;;5073624;28;20131;-75
2022/11/08 09:15:21;;;;;;;4.22;1.75;;;15.70;99.90;;;;;;5070624;28;20049;-74
2022/11/08 09:17:47;;;;;;;8.32;3.38;;;15.60;99.90;;;;;;5053897;28;20029;-74
2022/11/08 09:20:13;;;;;;;3.03;1.50;;;15.70;99.90;;;;;;5055057;28;20068;-74
2022/11/08 09:22:39;;;;;;;4.03;1.77;;;15.80;99.90;;;;;;5070683;28;20025;-74
2022/11/08 09:25:05;;;;;;;5.13;1.98;;;15.80;99.90;;;;;;5053964;28;20045;-72
2022/11/08 09:27:31;;;;;;;5.95;2.50;;;16.00;99.90;;;;;;5055272;28;20121;-72
2022/11/08 09:29:58;;;;;;;6.13;2.35;;;15.90;99.90;;;;;;5053731;28;20076;-73
2022/11/08 09:32:27;;;;;;;6.63;2.88;;;16.00;99.90;;;;;;5070439;28;20033;-70
2022/11/08 09:34:54;;;;;;;4.00;1.33;;;16.30;99.90;;;;;;5054747;28;20132;-72
2022/11/08 09:37:21;;;;;;;5.72;2.05;;;16.60;99.90;;;;;;5054859;28;20037;-72
2022/11/08 09:39:46;;;;;;;3.97;1.92;;;16.90;99.90;;;;;;5053848;28;20059;-71
2022/11/08 09:42:22;;;;;;;6.18;2.85;;;16.60;99.90;;;;;;5061893;28;20040;-70
2022/11/08 09:44:57;;;;;;;2.83;1.33;;;16.60;99.90;;;;;;5072842;28;20040;-71
2022/11/08 09:47:30;;;;;;;4.10;1.92;;;16.20;99.90;;;;;;5070952;28;20048;-70
2022/11/08 09:50:34;;;;;;;2.00;0.88;;;16.30;99.90;;;;;;5072580;28;20040;-71
2022/11/08 09:53:34;;;;;;;4.93;1.60;;;16.30;99.90;;;;;;5073047;28;20127;-71
2022/11/08 09:56:15;;;;;;;11.35;3.35;;;16.00;99.90;;;;;;5071468;28;20048;-71
2022/11/08 09:59:01;;;;;;;6.10;3.17;;;15.90;99.90;;;;;;5072363;28;20044;-71
2022/11/08 10:01:32;;;;;;;4.00;1.83;;;15.90;99.90;;;;;;5072205;28;20036;-74
2022/11/08 10:04:04;;;;;;;6.55;2.13;;;16.50;99.90;;;;;;5072630;28;20127;-72
2022/11/08 10:07:01;;;;;;;7.88;2.58;;;17.00;99.90;;;;;;5088402;28;20055;-73
2022/11/08 10:09:58;;;;;;;4.38;1.95;;;17.50;99.90;;;;;;5072177;28;20487;-75
2022/11/08 10:12:48;;;;;;;7.55;2.53;;;17.70;99.90;;;;;;5070770;28;20055;-73
2022/11/08 10:15:37;;;;;;;8.15;2.78;;;17.20;99.90;;;;;;5070703;28;20048;-82
2022/11/08 10:18:31;;;;;;;9.07;3.28;;;17.00;99.90;;;;;;5071980;28;20075;-72
2022/11/08 10:21:33;;;;;;;11.90;3.92;;;17.00;99.90;;;;;;5072161;28;20040;-82
2022/11/08 10:24:03;;;;;;;4.50;1.33;;;17.70;99.90;;;;;;5013477;28;20493;-74
2022/11/08 10:26:41;;;;;;;9.48;3.15;;;17.80;99.90;;;;;;5064965;28;20113;-81
2022/11/08 10:29:14;;;;;;;6.82;2.80;;;17.60;99.90;;;;;;5069677;28;20125;-71
2022/11/08 10:31:41;;;;;;;3.25;1.42;;;17.60;99.90;;;;;;5070818;28;20113;-70
2022/11/08 10:34:16;;;;;;;4.93;1.85;;;17.60;99.90;;;;;;5071731;28;20047;-72
2022/11/08 10:36:45;;;;;;;14.00;4.68;;;17.60;99.90;;;;;;5071123;28;20484;-71
2022/11/08 10:39:18;;;;;;;4.07;1.42;;;17.50;99.90;;;;;;5070496;28;20033;-75
2022/11/08 10:41:55;;;;;;;14.52;4.57;;;17.50;99.90;;;;;;5071883;28;20064;-82
2022/11/08 10:44:25;;;;;;;12.48;4.53;;;17.60;99.90;;;;;;5071698;28;20044;-74
2022/11/08 10:46:58;;;;;;;4.38;1.92;;;17.60;99.90;;;;;;5071929;28;20041;-79
2022/11/08 10:49:39;;;;;;;4.85;1.20;;;18.00;99.90;;;;;;5071666;28;20041;-73
2022/11/08 10:52:10;;;;;;;9.27;2.00;;;17.70;99.90;;;;;;5071767;28;20037;-78
2022/11/08 10:54:54;;;;;;;11.60;3.53;;;17.30;99.90;;;;;;5071738;28;20036;-68
2022/11/08 10:57:41;;;;;;;9.38;3.40;;;17.10;99.90;;;;;;5071430;28;20044;-78
2022/11/08 11:00:22;;;;;;;6.75;2.05;;;17.10;99.90;;;;;;5071651;28;20038;-78
2022/11/08 11:02:58;;;;;;;8.95;2.45;;;17.20;99.90;;;;;;5070274;28;20072;-73
2022/11/08 11:05:34;;;;;;;3.15;1.48;;;17.20;99.90;;;;;;5071036;28;20033;-71
2022/11/08 11:08:13;;;;;;;13.30;4.18;;;17.30;99.90;;;;;;5071421;28;20028;-72
2022/11/08 11:10:47;;;;;;;13.60;4.43;;;17.30;99.90;;;;;;5070767;28;20431;-69
2022/11/08 11:13:25;;;;;;;6.75;2.50;;;17.20;99.90;;;;;;5070952;28;20068;-73
2022/11/08 11:16:02;;;;;;;5.07;1.13;;;17.40;99.90;;;;;;5073385;28;20052;-78
2022/11/08 11:18:30;;;;;;;7.50;1.80;;;17.40;99.90;;;;;;5074861;28;20040;-72
2022/11/08 11:21:00;;;;;;;5.70;1.73;;;17.40;99.90;;;;;;5074187;28;20044;-83
2022/11/08 11:23:35;;;;;;;5.28;1.77;;;17.40;99.90;;;;;;5070984;28;20033;-69
2022/11/08 11:26:03;;;;;;;6.97;2.95;;;17.20;99.90;;;;;;5075138;28;20586;-82
2022/11/08 11:28:29;;;;;;;1.80;0.95;;;17.00;99.90;;;;;;5075305;28;20051;-82
2022/11/08 11:31:01;;;;;;;2.58;0.82;;;17.00;99.90;;;;;;5074120;28;20504;-75
2022/11/08 11:33:28;;;;;;;7.57;2.78;;;17.00;99.90;;;;;;5077117;28;20127;-70
2022/11/08 11:36:06;;;;;;;4.55;1.73;;;16.90;99.90;;;;;;5075178;28;20049;-78
2022/11/08 11:38:48;;;;;;;5.60;1.58;;;16.90;99.90;;;;;;5075168;28;20071;-82
2022/11/08 11:41:17;;;;;;;7.50;2.97;;;16.90;99.90;;;;;;5074293;28;20037;-74
2022/11/08 11:44:17;;;;;;;6.88;1.95;;;17.10;99.90;;;;;;5065853;28;20039;-69
2022/11/08 11:46:58;;;;;;;4.35;1.88;;;17.00;99.90;;;;;;5057232;28;20040;-81
2022/11/08 11:49:28;;;;;;;6.53;1.85;;;17.10;99.90;;;;;;5069429;28;20048;-81
2022/11/08 11:51:55;;;;;;;9.25;2.47;;;17.20;99.90;;;;;;5070273;28;20032;-81
2022/11/08 11:54:26;;;;;;;5.40;1.70;;;17.10;99.90;;;;;;5054460;28;20045;-80
2022/11/08 11:56:55;;;;;;;3.03;0.95;;;17.10;99.90;;;;;;5069986;28;20107;-76
2022/11/08 12:00:11;;;;;;;17.60;4.63;;;17.00;99.90;;;;;;5063844;28;20392;-75
2022/11/08 12:03:07;;;;;;;2.97;1.25;;;16.90;99.90;;;;;;5073444;28;20052;-76
2022/11/08 12:06:04;;;;;;;6.95;1.70;;;16.80;99.90;;;;;;5073684;28;20376;-69
2022/11/08 12:09:13;;;;;;;4.43;1.40;;;16.70;99.90;;;;;;5071353;28;20412;-70
2022/11/08 12:11:48;;;;;;;5.90;2.15;;;16.70;99.90;;;;;;5049825;28;20045;-73
2022/11/08 12:14:22;;;;;;;1.58;0.88;;;16.60;99.90;;;;;;5073326;28;20089;-69
2022/11/08 12:17:14;;;;;;;2.20;1.08;;;16.50;99.90;;;;;;5074190;28;20044;-77
2022/11/08 12:20:13;;;;;;;3.85;1.67;;;16.40;99.90;;;;;;5044404;28;20043;-69
2022/11/08 12:22:47;;;;;;;4.47;1.65;;;16.40;99.90;;;;;;5067475;28;20044;-80
2022/11/08 12:25:36;;;;;;;4.07;1.67;;;16.30;99.90;;;;;;5072714;28;20043;-69
2022/11/08 12:28:39;;;;;;;8.57;2.65;;;16.20;99.90;;;;;;5071949;28;20063;-69
2022/11/08 12:31:22;;;;;;;1.52;0.80;;;16.20;99.90;;;;;;5072143;28;20384;-69
2022/11/08 12:34:09;;;;;;;4.03;1.73;;;16.10;99.90;;;;;;5071217;28;20115;-69
2022/11/08 12:36:38;;;;;;;3.67;1.30;;;16.10;99.90;;;;;;5073913;28;20048;-70
2022/11/08 12:39:11;;;;;;;2.90;1.10;;;16.10;99.90;;;;;;5073733;28;20039;-79
2022/11/08 12:41:44;;;;;;;3.28;1.30;;;16.10;99.90;;;;;;5074774;28;20037;-79
2022/11/08 12:44:16;;;;;;;2.42;0.75;;;16.10;99.90;;;;;;5073827;28;20094;-84
2022/11/08 12:47:23;;;;;;;2.20;0.82;;;15.90;99.90;;;;;;5073996;28;20492;-73
2022/11/08 12:50:26;;;;;;;2.03;1.00;;;15.90;99.90;;;;;;5072192;28;20043;-69
2022/11/08 12:53:04;;;;;;;1.83;0.77;;;15.80;99.90;;;;;;5073601;28;20043;-70
2022/11/08 12:55:40;;;;;;;3.92;1.23;;;15.80;99.90;;;;;;5072462;28;20044;-83
2022/11/08 12:58:26;;;;;;;1.25;0.88;;;15.80;99.90;;;;;;5073434;28;20105;-70
2022/11/08 13:00:58;;;;;;;2.50;0.90;;;15.90;99.90;;;;;;5061958;28;20127;-69
2022/11/08 13:03:55;;;;;;;2.30;1.10;;;15.80;99.90;;;;;;5073355;28;20043;-69
2022/11/08 13:06:45;;;;;;;14.18;4.90;;;15.80;99.90;;;;;;5073759;28;20377;-81
2022/11/08 13:09:14;;;;;;;8.25;3.95;;;15.80;99.90;;;;;;5074209;28;20032;-74
2022/11/08 13:11:44;;;;;;;5.80;2.55;;;15.80;99.90;;;;;;5073679;28;20040;-69
2022/11/08 13:14:18;;;;;;;2.63;1.85;;;15.80;99.90;;;;;;5071894;28;20039;-83
2022/11/08 13:17:05;;;;;;;3.65;0.93;;;15.80;99.90;;;;;;5072108;28;20047;-83
2022/11/08 13:20:05;;;;;;;1.27;0.90;;;15.80;99.90;;;;;;5072215;28;20041;-83
2022/11/08 13:22:31;;;;;;;1.38;1.15;;;15.70;99.90;;;;;;5073625;28;20064;-83
2022/11/08 13:25:00;;;;;;;1.77;1.05;;;15.70;99.90;;;;;;5074892;28;20044;-79